sensor_id;sensor_type;location;lat;lon;timestamp;pressure;altitude;pressure_sealevel;temperature;humidity
20077;BME280;12348;42.710;23.378;2022-09-25T00:00:25;95493.72;;;7.71;100.00
20077;BME280;12348;42.710;23.378;2022-09-25T00:02:54;95488.88;;;7.73;100.00
20077;BME280;12348;42.710;23.378;2022-09-25T00:05:21;95492.13;;;7.75;100.00
20077;BME280;12348;42.710;23.378;2022-09-25T00:07:48;95489.72;;;7.73;100.00
20077;BME280;12348;42.710;23.378;2022-09-25T00:10:15;95490.50;;;7.74;100.00
20077;BME280;12348;42.710;23.378;2022-09-25T00:12:41;95487.28;;;7.67;100.00
20077;BME280;12348;42.710;23.378;2022-09-25T00:15:09;95490.41;;;7.53;100.00
20077;BME280;12348;42.710;23.378;2022-09-25T00:17:36;95490.44;;;7.59;100.00
20077;BME280;12348;42.710;23.378;2022-09-25T00:20:05;95490.69;;;7.57;100.00
20077;BME280;12348;42.710;23.378;2022-09-25T00:22:30;95488.34;;;7.71;100.00
20077;BME280;12348;42.710;23.378;2022-09-25T00:24:57;95490.47;;;7.64;100.00
20077;BME280;12348;42.710;23.378;2022-09-25T00:27:24;95480.59;;;7.69;100.00
20077;BME280;12348;42.710;23.378;2022-09-25T00:29:51;95475.47;;;7.68;100.00
20077;BME280;12348;42.710;23.378;2022-09-25T00:32:18;95483.28;;;7.74;100.00
20077;BME280;12348;42.710;23.378;2022-09-25T00:34:45;95471.28;;;7.92;100.00
20077;BME280;12348;42.710;23.378;2022-09-25T00:37:13;95475.00;;;7.81;100.00
20077;BME280;12348;42.710;23.378;2022-09-25T00:39:40;95481.41;;;7.75;100.00
20077;BME280;12348;42.710;23.378;2022-09-25T00:42:10;95475.22;;;7.74;100.00
20077;BME280;12348;42.710;23.378;2022-09-25T00:44:57;95473.34;;;7.75;100.00
20077;BME280;12348;42.710;23.378;2022-09-25T00:47:30;95462.13;;;7.83;100.00
20077;BME280;12348;42.710;23.378;2022-09-25T00:50:01;95468.50;;;7.67;100.00
20077;BME280;12348;42.710;23.378;2022-09-25T00:52:31;95466.28;;;7.43;100.00
20077;BME280;12348;42.710;23.378;2022-09-25T00:55:01;95455.63;;;7.59;100.00
20077;BME280;12348;42.710;23.378;2022-09-25T00:57:30;95473.56;;;7.58;100.00
20077;BME280;12348;42.710;23.378;2022-09-25T01:00:03;95476.53;;;7.67;100.00
20077;BME280;12348;42.710;23.378;2022-09-25T01:02:35;95475.19;;;7.64;100.00
20077;BME280;12348;42.710;23.378;2022-09-25T01:05:06;95473.31;;;7.60;100.00
20077;BME280;12348;42.710;23.378;2022-09-25T01:07:39;95463.56;;;7.38;100.00
20077;BME280;12348;42.710;23.378;2022-09-25T01:10:08;95460.28;;;7.21;100.00
20077;BME280;12348;42.710;23.378;2022-09-25T01:12:36;95455.72;;;7.21;100.00
20077;BME280;12348;42.710;23.378;2022-09-25T01:15:04;95447.31;;;7.02;100.00
20077;BME280;12348;42.710;23.378;2022-09-25T01:17:36;95458.75;;;6.93;100.00
20077;BME280;12348;42.710;23.378;2022-09-25T01:20:15;95454.00;;;7.05;100.00
20077;BME280;12348;42.710;23.378;2022-09-25T01:23:03;95459.59;;;6.98;100.00
20077;BME280;12348;42.710;23.378;2022-09-25T01:25:49;95461.22;;;7.04;100.00
20077;BME280;12348;42.710;23.378;2022-09-25T01:28:44;95455.38;;;7.08;100.00
20077;BME280;12348;42.710;23.378;2022-09-25T01:31:16;95456.69;;;7.05;100.00
20077;BME280;12348;42.710;23.378;2022-09-25T01:33:49;95458.78;;;6.98;100.00
20077;BME280;12348;42.710;23.378;2022-09-25T01:36:24;95456.63;;;6.95;100.00
20077;BME280;12348;42.710;23.378;2022-09-25T01:38:56;95463.31;;;6.97;100.00
20077;BME280;12348;42.710;23.378;2022-09-25T01:41:29;95465.97;;;6.87;100.00
20077;BME280;12348;42.710;23.378;2022-09-25T01:44:02;95462.78;;;6.95;100.00
20077;BME280;12348;42.710;23.378;2022-09-25T01:46:36;95460.66;;;6.97;100.00
20077;BME280;12348;42.710;23.378;2022-09-25T01:49:10;95460.84;;;6.86;100.00
20077;BME280;12348;42.710;23.378;2022-09-25T01:51:43;95467.06;;;6.91;100.00
20077;BME280;12348;42.710;23.378;2022-09-25T01:54:13;95467.56;;;6.88;100.00
20077;BME280;12348;42.710;23.378;2022-09-25T01:56:47;95465.38;;;6.80;100.00
20077;BME280;12348;42.710;23.378;2022-09-25T01:59:20;95465.91;;;6.82;100.00
20077;BME280;12348;42.710;23.378;2022-09-25T02:01:51;95462.75;;;6.90;100.00
20077;BME280;12348;42.710;23.378;2022-09-25T02:04:23;95461.63;;;6.81;100.00
20077;BME280;12348;42.710;23.378;2022-09-25T02:06:54;95461.53;;;6.66;100.00
20077;BME280;12348;42.710;23.378;2022-09-25T02:09:26;95458.75;;;6.55;100.00
20077;BME280;12348;42.710;23.378;2022-09-25T02:11:57;95463.78;;;6.47;100.00
20077;BME280;12348;42.710;23.378;2022-09-25T02:14:31;95448.44;;;6.37;100.00
20077;BME280;12348;42.710;23.378;2022-09-25T02:17:01;95451.63;;;6.34;100.00
20077;BME280;12348;42.710;23.378;2022-09-25T02:19:30;95452.91;;;6.26;100.00
20077;BME280;12348;42.710;23.378;2022-09-25T02:22:18;95470.50;;;6.22;100.00
20077;BME280;12348;42.710;23.378;2022-09-25T02:24:50;95468.47;;;6.35;100.00
20077;BME280;12348;42.710;23.378;2022-09-25T02:27:21;95464.16;;;6.28;100.00
20077;BME280;12348;42.710;23.378;2022-09-25T02:29:50;95467.16;;;6.37;100.00
20077;BME280;12348;42.710;23.378;2022-09-25T02:32:20;95480.69;;;6.25;100.00
20077;BME280;12348;42.710;23.378;2022-09-25T02:34:48;95466.25;;;6.26;100.00
20077;BME280;12348;42.710;23.378;2022-09-25T02:37:16;95461.78;;;6.32;100.00
20077;BME280;12348;42.710;23.378;2022-09-25T02:39:45;95454.16;;;6.19;100.00
20077;BME280;12348;42.710;23.378;2022-09-25T02:42:23;95462.94;;;6.14;100.00
20077;BME280;12348;42.710;23.378;2022-09-25T02:45:06;95471.97;;;6.35;100.00
20077;BME280;12348;42.710;23.378;2022-09-25T02:47:43;95462.16;;;6.46;100.00
20077;BME280;12348;42.710;23.378;2022-09-25T02:50:19;95463.47;;;6.43;100.00
20077;BME280;12348;42.710;23.378;2022-09-25T02:52:51;95471.50;;;6.43;100.00
20077;BME280;12348;42.710;23.378;2022-09-25T02:55:24;95470.53;;;6.54;100.00
20077;BME280;12348;42.710;23.378;2022-09-25T02:57:57;95465.19;;;6.54;100.00
20077;BME280;12348;42.710;23.378;2022-09-25T03:00:27;95462.44;;;6.49;100.00
20077;BME280;12348;42.710;23.378;2022-09-25T03:02:57;95469.63;;;6.44;100.00
20077;BME280;12348;42.710;23.378;2022-09-25T03:05:25;95468.84;;;6.43;100.00
20077;BME280;12348;42.710;23.378;2022-09-25T03:07:52;95464.41;;;6.59;100.00
20077;BME280;12348;42.710;23.378;2022-09-25T03:10:37;95468.94;;;6.53;100.00
20077;BME280;12348;42.710;23.378;2022-09-25T03:13:22;95459.84;;;6.60;100.00
20077;BME280;12348;42.710;23.378;2022-09-25T03:15:55;95460.66;;;6.60;100.00
20077;BME280;12348;42.710;23.378;2022-09-25T03:18:24;95463.59;;;6.59;100.00
20077;BME280;12348;42.710;23.378;2022-09-25T03:20:51;95461.72;;;6.59;100.00
20077;BME280;12348;42.710;23.378;2022-09-25T03:23:18;95461.94;;;6.52;100.00
20077;BME280;12348;42.710;23.378;2022-09-25T03:25:45;95451.06;;;6.64;100.00
20077;BME280;12348;42.710;23.378;2022-09-25T03:28:13;95448.91;;;6.61;100.00
20077;BME280;12348;42.710;23.378;2022-09-25T03:30:40;95446.47;;;6.60;100.00
20077;BME280;12348;42.710;23.378;2022-09-25T03:33:10;95454.09;;;6.73;100.00
20077;BME280;12348;42.710;23.378;2022-09-25T03:35:37;95447.06;;;6.67;100.00
20077;BME280;12348;42.710;23.378;2022-09-25T03:38:05;95447.03;;;6.62;100.00
20077;BME280;12348;42.710;23.378;2022-09-25T03:40:32;95460.94;;;6.59;100.00
20077;BME280;12348;42.710;23.378;2022-09-25T03:42:59;95456.59;;;6.52;100.00
20077;BME280;12348;42.710;23.378;2022-09-25T03:45:26;95454.81;;;6.31;100.00
20077;BME280;12348;42.710;23.378;2022-09-25T03:47:53;95453.16;;;6.25;100.00
20077;BME280;12348;42.710;23.378;2022-09-25T03:50:21;95462.94;;;6.14;100.00
20077;BME280;12348;42.710;23.378;2022-09-25T03:52:48;95459.97;;;6.11;100.00
20077;BME280;12348;42.710;23.378;2022-09-25T03:55:15;95463.03;;;5.97;100.00
20077;BME280;12348;42.710;23.378;2022-09-25T03:57:42;95464.41;;;6.00;100.00
20077;BME280;12348;42.710;23.378;2022-09-25T04:00:09;95472.38;;;5.95;100.00
20077;BME280;12348;42.710;23.378;2022-09-25T04:02:37;95468.91;;;5.94;100.00
20077;BME280;12348;42.710;23.378;2022-09-25T04:05:04;95469.75;;;5.78;100.00
20077;BME280;12348;42.710;23.378;2022-09-25T04:07:33;95469.22;;;5.76;100.00
20077;BME280;12348;42.710;23.378;2022-09-25T04:10:00;95474.44;;;5.66;100.00
20077;BME280;12348;42.710;23.378;2022-09-25T04:12:27;95465.31;;;5.62;100.00
20077;BME280;12348;42.710;23.378;2022-09-25T04:14:54;95464.38;;;5.51;100.00
20077;BME280;12348;42.710;23.378;2022-09-25T04:17:21;95465.81;;;5.58;100.00
20077;BME280;12348;42.710;23.378;2022-09-25T04:19:48;95464.19;;;5.57;100.00
20077;BME280;12348;42.710;23.378;2022-09-25T04:22:14;95464.91;;;5.75;100.00
20077;BME280;12348;42.710;23.378;2022-09-25T04:24:42;95467.28;;;5.93;100.00
20077;BME280;12348;42.710;23.378;2022-09-25T04:27:16;95468.16;;;6.31;100.00
20077;BME280;12348;42.710;23.378;2022-09-25T04:29:45;95477.75;;;6.91;100.00
20077;BME280;12348;42.710;23.378;2022-09-25T04:32:12;95479.09;;;7.36;100.00
20077;BME280;12348;42.710;23.378;2022-09-25T04:34:56;95476.75;;;8.59;100.00
20077;BME280;12348;42.710;23.378;2022-09-25T04:37:24;95481.00;;;9.21;100.00
20077;BME280;12348;42.710;23.378;2022-09-25T04:39:53;95467.88;;;9.84;100.00
20077;BME280;12348;42.710;23.378;2022-09-25T04:42:20;95482.59;;;9.22;100.00
20077;BME280;12348;42.710;23.378;2022-09-25T04:44:49;95476.66;;;8.13;100.00
20077;BME280;12348;42.710;23.378;2022-09-25T04:47:18;95484.22;;;8.31;100.00
20077;BME280;12348;42.710;23.378;2022-09-25T04:49:44;95482.41;;;8.67;100.00
20077;BME280;12348;42.710;23.378;2022-09-25T04:52:11;95476.16;;;8.36;100.00
20077;BME280;12348;42.710;23.378;2022-09-25T04:54:39;95471.88;;;8.30;100.00
20077;BME280;12348;42.710;23.378;2022-09-25T04:57:08;95476.78;;;8.74;100.00
20077;BME280;12348;42.710;23.378;2022-09-25T04:59:36;95475.50;;;9.62;100.00
20077;BME280;12348;42.710;23.378;2022-09-25T05:02:02;95481.53;;;10.87;100.00
20077;BME280;12348;42.710;23.378;2022-09-25T05:04:29;95479.28;;;12.00;100.00
20077;BME280;12348;42.710;23.378;2022-09-25T05:06:56;95488.91;;;11.82;100.00
20077;BME280;12348;42.710;23.378;2022-09-25T05:09:23;95489.75;;;12.45;97.60
20077;BME280;12348;42.710;23.378;2022-09-25T05:11:50;95488.34;;;13.64;84.36
20077;BME280;12348;42.710;23.378;2022-09-25T05:14:18;95486.03;;;13.71;79.83
20077;BME280;12348;42.710;23.378;2022-09-25T05:16:45;95485.28;;;14.35;76.04
20077;BME280;12348;42.710;23.378;2022-09-25T05:19:14;95478.50;;;15.27;71.65
20077;BME280;12348;42.710;23.378;2022-09-25T05:21:41;95475.28;;;16.62;61.39
20077;BME280;12348;42.710;23.378;2022-09-25T05:24:09;95473.41;;;17.61;54.30
20077;BME280;12348;42.710;23.378;2022-09-25T05:26:38;95476.25;;;18.62;51.29
20077;BME280;12348;42.710;23.378;2022-09-25T05:29:05;95473.56;;;20.07;46.89
20077;BME280;12348;42.710;23.378;2022-09-25T05:31:33;95470.25;;;19.90;44.14
20077;BME280;12348;42.710;23.378;2022-09-25T05:34:00;95462.59;;;20.44;43.54
20077;BME280;12348;42.710;23.378;2022-09-25T05:36:27;95466.25;;;20.36;43.48
20077;BME280;12348;42.710;23.378;2022-09-25T05:38:54;95473.66;;;21.00;41.75
20077;BME280;12348;42.710;23.378;2022-09-25T05:41:21;95471.69;;;19.63;43.95
20077;BME280;12348;42.710;23.378;2022-09-25T05:43:48;95477.91;;;19.51;45.30
20077;BME280;12348;42.710;23.378;2022-09-25T05:46:15;95474.94;;;19.10;45.81
20077;BME280;12348;42.710;23.378;2022-09-25T05:48:43;95474.47;;;19.87;46.24
20077;BME280;12348;42.710;23.378;2022-09-25T05:51:11;95476.69;;;20.83;43.18
20077;BME280;12348;42.710;23.378;2022-09-25T05:53:37;95478.97;;;21.65;40.77
20077;BME280;12348;42.710;23.378;2022-09-25T05:56:04;95480.53;;;20.54;42.32
20077;BME280;12348;42.710;23.378;2022-09-25T05:58:33;95480.28;;;20.47;43.54
20077;BME280;12348;42.710;23.378;2022-09-25T06:01:04;95475.72;;;21.91;41.16
20077;BME280;12348;42.710;23.378;2022-09-25T06:03:32;95467.75;;;21.26;41.32
20077;BME280;12348;42.710;23.378;2022-09-25T06:06:00;95472.41;;;19.38;46.44
20077;BME280;12348;42.710;23.378;2022-09-25T06:08:28;95471.28;;;20.58;43.00
20077;BME280;12348;42.710;23.378;2022-09-25T06:10:57;95475.25;;;20.61;44.66
20077;BME280;12348;42.710;23.378;2022-09-25T06:13:25;95474.78;;;21.12;42.80
20077;BME280;12348;42.710;23.378;2022-09-25T06:15:52;95470.09;;;19.61;46.66
20077;BME280;12348;42.710;23.378;2022-09-25T06:18:22;95471.03;;;21.60;42.30
20077;BME280;12348;42.710;23.378;2022-09-25T06:20:50;95471.50;;;20.41;44.66
20077;BME280;12348;42.710;23.378;2022-09-25T06:23:18;95480.00;;;22.20;40.69
20077;BME280;12348;42.710;23.378;2022-09-25T06:25:45;95474.19;;;22.92;39.28
20077;BME280;12348;42.710;23.378;2022-09-25T06:28:12;95481.09;;;21.56;41.18
20077;BME280;12348;42.710;23.378;2022-09-25T06:30:39;95483.28;;;22.26;40.51
20077;BME280;12348;42.710;23.378;2022-09-25T06:33:08;95474.81;;;21.56;41.09
20077;BME280;12348;42.710;23.378;2022-09-25T06:35:40;95472.47;;;22.17;40.29
20077;BME280;12348;42.710;23.378;2022-09-25T06:38:07;95474.69;;;22.63;39.79
20077;BME280;12348;42.710;23.378;2022-09-25T06:40:35;95478.25;;;22.47;39.42
20077;BME280;12348;42.710;23.378;2022-09-25T06:43:06;95481.41;;;20.98;41.37
20077;BME280;12348;42.710;23.378;2022-09-25T06:45:34;95478.88;;;19.34;45.47
20077;BME280;12348;42.710;23.378;2022-09-25T06:48:05;95469.31;;;18.74;46.46
20077;BME280;12348;42.710;23.378;2022-09-25T06:50:38;95469.66;;;20.57;43.80
20077;BME280;12348;42.710;23.378;2022-09-25T06:53:06;95471.41;;;22.38;39.67
20077;BME280;12348;42.710;23.378;2022-09-25T06:55:33;95464.44;;;23.14;39.00
20077;BME280;12348;42.710;23.378;2022-09-25T06:58:02;95460.47;;;21.18;41.79
20077;BME280;12348;42.710;23.378;2022-09-25T07:00:30;95471.75;;;21.29;42.38
20077;BME280;12348;42.710;23.378;2022-09-25T07:02:57;95476.50;;;21.92;40.91
20077;BME280;12348;42.710;23.378;2022-09-25T07:05:41;95472.59;;;23.50;38.28
20077;BME280;12348;42.710;23.378;2022-09-25T07:08:09;95482.56;;;22.99;38.30
20077;BME280;12348;42.710;23.378;2022-09-25T07:10:38;95479.91;;;23.22;38.12
20077;BME280;12348;42.710;23.378;2022-09-25T07:13:07;95488.25;;;24.60;36.21
20077;BME280;12348;42.710;23.378;2022-09-25T07:15:33;95483.69;;;25.32;34.16
20077;BME280;12348;42.710;23.378;2022-09-25T07:18:00;95488.97;;;25.44;33.89
20077;BME280;12348;42.710;23.378;2022-09-25T07:20:27;95496.09;;;23.47;37.07
20077;BME280;12348;42.710;23.378;2022-09-25T07:22:58;95497.19;;;23.04;37.19
20077;BME280;12348;42.710;23.378;2022-09-25T07:25:28;95497.34;;;22.75;38.26
20077;BME280;12348;42.710;23.378;2022-09-25T07:27:55;95506.44;;;23.54;37.05
20077;BME280;12348;42.710;23.378;2022-09-25T07:30:23;95499.78;;;23.97;36.78
20077;BME280;12348;42.710;23.378;2022-09-25T07:32:49;95503.97;;;22.23;39.17
20077;BME280;12348;42.710;23.378;2022-09-25T07:35:16;95492.22;;;22.23;39.43
20077;BME280;12348;42.710;23.378;2022-09-25T07:37:43;95494.84;;;22.35;39.80
20077;BME280;12348;42.710;23.378;2022-09-25T07:40:10;95477.75;;;23.32;38.73
20077;BME280;12348;42.710;23.378;2022-09-25T07:42:38;95477.78;;;25.30;35.05
20077;BME280;12348;42.710;23.378;2022-09-25T07:45:06;95462.50;;;25.73;34.17
20077;BME280;12348;42.710;23.378;2022-09-25T07:47:34;95468.72;;;25.29;34.26
20077;BME280;12348;42.710;23.378;2022-09-25T07:50:01;95462.56;;;25.80;33.31
20077;BME280;12348;42.710;23.378;2022-09-25T07:52:28;95461.06;;;27.84;31.11
20077;BME280;12348;42.710;23.378;2022-09-25T07:54:55;95454.69;;;28.91;28.75
20077;BME280;12348;42.710;23.378;2022-09-25T07:57:22;95442.50;;;28.20;29.22
20077;BME280;12348;42.710;23.378;2022-09-25T07:59:50;95434.69;;;27.06;29.99
20077;BME280;12348;42.710;23.378;2022-09-25T08:02:17;95432.63;;;26.27;31.51
20077;BME280;12348;42.710;23.378;2022-09-25T08:04:45;95432.84;;;26.04;31.97
20077;BME280;12348;42.710;23.378;2022-09-25T08:07:11;95438.31;;;27.21;30.71
20077;BME280;12348;42.710;23.378;2022-09-25T08:09:38;95438.94;;;28.16;28.81
20077;BME280;12348;42.710;23.378;2022-09-25T08:12:05;95440.91;;;29.71;28.08
20077;BME280;12348;42.710;23.378;2022-09-25T08:14:35;95446.03;;;28.53;28.25
20077;BME280;12348;42.710;23.378;2022-09-25T08:17:02;95435.44;;;25.86;31.43
20077;BME280;12348;42.710;23.378;2022-09-25T08:19:28;95441.53;;;24.41;33.40
20077;BME280;12348;42.710;23.378;2022-09-25T08:21:58;95437.28;;;24.74;34.19
20077;BME280;12348;42.710;23.378;2022-09-25T08:24:24;95426.88;;;25.57;32.47
20077;BME280;12348;42.710;23.378;2022-09-25T08:26:51;95423.09;;;26.76;30.45
20077;BME280;12348;42.710;23.378;2022-09-25T08:29:18;95425.47;;;28.18;29.29
20077;BME280;12348;42.710;23.378;2022-09-25T08:31:45;95413.59;;;28.03;28.94
20077;BME280;12348;42.710;23.378;2022-09-25T08:34:12;95403.97;;;27.19;30.16
20077;BME280;12348;42.710;23.378;2022-09-25T08:36:40;95403.72;;;28.20;29.32
20077;BME280;12348;42.710;23.378;2022-09-25T08:39:09;95402.91;;;28.45;29.05
20077;BME280;12348;42.710;23.378;2022-09-25T08:41:43;95399.25;;;27.30;28.45
20077;BME280;12348;42.710;23.378;2022-09-25T08:44:19;95400.38;;;27.18;29.30
20077;BME280;12348;42.710;23.378;2022-09-25T08:46:51;95393.69;;;25.50;31.34
20077;BME280;12348;42.710;23.378;2022-09-25T08:49:40;95397.31;;;27.63;30.01
20077;BME280;12348;42.710;23.378;2022-09-25T08:52:14;95399.34;;;28.34;29.08
20077;BME280;12348;42.710;23.378;2022-09-25T08:54:43;95405.97;;;28.83;27.35
20077;BME280;12348;42.710;23.378;2022-09-25T08:57:20;95401.69;;;27.53;28.96
20077;BME280;12348;42.710;23.378;2022-09-25T08:59:55;95393.31;;;26.44;31.16
20077;BME280;12348;42.710;23.378;2022-09-25T09:02:33;95395.13;;;26.22;31.52
20077;BME280;12348;42.710;23.378;2022-09-25T09:05:04;95392.06;;;27.07;30.49
20077;BME280;12348;42.710;23.378;2022-09-25T09:07:37;95383.41;;;27.20;30.60
20077;BME280;12348;42.710;23.378;2022-09-25T09:10:09;95380.38;;;27.89;29.41
20077;BME280;12348;42.710;23.378;2022-09-25T09:12:44;95375.59;;;27.68;29.67
20077;BME280;12348;42.710;23.378;2022-09-25T09:15:16;95373.09;;;28.85;27.10
20077;BME280;12348;42.710;23.378;2022-09-25T09:17:46;95366.03;;;29.54;26.53
20077;BME280;12348;42.710;23.378;2022-09-25T09:20:15;95360.09;;;29.59;26.05
20077;BME280;12348;42.710;23.378;2022-09-25T09:22:47;95359.13;;;29.20;25.96
20077;BME280;12348;42.710;23.378;2022-09-25T09:25:24;95349.84;;;30.46;25.45
20077;BME280;12348;42.710;23.378;2022-09-25T09:28:16;95344.53;;;30.58;24.42
20077;BME280;12348;42.710;23.378;2022-09-25T09:30:54;95341.44;;;30.08;24.57
20077;BME280;12348;42.710;23.378;2022-09-25T09:33:35;95344.94;;;29.70;25.63
20077;BME280;12348;42.710;23.378;2022-09-25T09:36:10;95345.75;;;30.12;24.82
20077;BME280;12348;42.710;23.378;2022-09-25T09:38:46;95345.97;;;29.32;26.08
20077;BME280;12348;42.710;23.378;2022-09-25T09:41:28;95346.47;;;29.12;26.20
20077;BME280;12348;42.710;23.378;2022-09-25T09:44:06;95334.25;;;29.69;25.88
20077;BME280;12348;42.710;23.378;2022-09-25T09:46:44;95335.25;;;28.32;27.19
20077;BME280;12348;42.710;23.378;2022-09-25T09:49:17;95341.22;;;27.98;27.55
20077;BME280;12348;42.710;23.378;2022-09-25T09:51:48;95340.03;;;28.20;27.50
20077;BME280;12348;42.710;23.378;2022-09-25T09:54:19;95338.75;;;28.61;28.11
20077;BME280;12348;42.710;23.378;2022-09-25T09:56:51;95328.34;;;29.60;26.61
20077;BME280;12348;42.710;23.378;2022-09-25T09:59:21;95331.63;;;30.41;26.05
20077;BME280;12348;42.710;23.378;2022-09-25T10:01:58;95327.91;;;30.89;24.88
20077;BME280;12348;42.710;23.378;2022-09-25T10:04:31;95319.66;;;30.82;24.79
20077;BME280;12348;42.710;23.378;2022-09-25T10:07:03;95320.50;;;30.00;25.81
20077;BME280;12348;42.710;23.378;2022-09-25T10:09:30;95308.59;;;30.40;25.36
20077;BME280;12348;42.710;23.378;2022-09-25T10:12:01;95320.34;;;30.55;24.47
20077;BME280;12348;42.710;23.378;2022-09-25T10:14:33;95308.22;;;28.68;26.84
20077;BME280;12348;42.710;23.378;2022-09-25T10:17:03;95308.44;;;29.72;25.36
20077;BME280;12348;42.710;23.378;2022-09-25T10:19:38;95303.63;;;28.08;27.05
20077;BME280;12348;42.710;23.378;2022-09-25T10:22:15;95297.25;;;27.11;27.83
20077;BME280;12348;42.710;23.378;2022-09-25T10:24:50;95301.66;;;28.08;27.84
20077;BME280;12348;42.710;23.378;2022-09-25T10:27:29;95298.94;;;29.69;26.19
20077;BME280;12348;42.710;23.378;2022-09-25T10:30:01;95301.84;;;30.41;25.08
20077;BME280;12348;42.710;23.378;2022-09-25T10:32:29;95282.13;;;30.63;24.96
20077;BME280;12348;42.710;23.378;2022-09-25T10:34:56;95288.84;;;29.90;25.29
20077;BME280;12348;42.710;23.378;2022-09-25T10:37:28;95273.97;;;29.14;26.22
20077;BME280;12348;42.710;23.378;2022-09-25T10:40:02;95280.63;;;28.36;26.50
20077;BME280;12348;42.710;23.378;2022-09-25T10:42:34;95282.34;;;27.76;27.63
20077;BME280;12348;42.710;23.378;2022-09-25T10:45:26;95274.72;;;28.19;27.82
20077;BME280;12348;42.710;23.378;2022-09-25T10:47:54;95280.34;;;27.91;27.32
20077;BME280;12348;42.710;23.378;2022-09-25T10:50:39;95278.72;;;27.18;28.51
20077;BME280;12348;42.710;23.378;2022-09-25T10:53:22;95262.03;;;26.79;29.44
20077;BME280;12348;42.710;23.378;2022-09-25T10:56:01;95274.41;;;27.89;27.80
20077;BME280;12348;42.710;23.378;2022-09-25T10:58:35;95264.06;;;28.14;27.34
20077;BME280;12348;42.710;23.378;2022-09-25T11:01:03;95270.59;;;28.70;27.38
20077;BME280;12348;42.710;23.378;2022-09-25T11:03:33;95260.97;;;29.00;26.56
20077;BME280;12348;42.710;23.378;2022-09-25T11:06:07;95265.88;;;28.60;27.09
20077;BME280;12348;42.710;23.378;2022-09-25T11:08:37;95256.94;;;28.20;27.02
20077;BME280;12348;42.710;23.378;2022-09-25T11:11:06;95246.72;;;28.98;25.45
20077;BME280;12348;42.710;23.378;2022-09-25T11:13:45;95245.19;;;29.42;24.73
20077;BME280;12348;42.710;23.378;2022-09-25T11:16:12;95254.44;;;28.58;25.05
20077;BME280;12348;42.710;23.378;2022-09-25T11:18:41;95250.25;;;28.03;26.34
20077;BME280;12348;42.710;23.378;2022-09-25T11:21:18;95248.22;;;25.84;28.79
20077;BME280;12348;42.710;23.378;2022-09-25T11:23:58;95242.25;;;26.52;28.41
20077;BME280;12348;42.710;23.378;2022-09-25T11:26:30;95243.41;;;26.54;28.73
20077;BME280;12348;42.710;23.378;2022-09-25T11:29:02;95247.91;;;27.59;27.25
20077;BME280;12348;42.710;23.378;2022-09-25T11:31:34;95248.19;;;28.33;26.25
20077;BME280;12348;42.710;23.378;2022-09-25T11:34:08;95239.13;;;28.14;25.91
20077;BME280;12348;42.710;23.378;2022-09-25T11:36:42;95238.03;;;27.65;26.92
20077;BME280;12348;42.710;23.378;2022-09-25T11:39:12;95230.44;;;28.16;25.56
20077;BME280;12348;42.710;23.378;2022-09-25T11:42:03;95230.50;;;26.98;27.17
20077;BME280;12348;42.710;23.378;2022-09-25T11:44:36;95226.81;;;26.47;27.39
20077;BME280;12348;42.710;23.378;2022-09-25T11:47:12;95214.13;;;26.35;27.64
20077;BME280;12348;42.710;23.378;2022-09-25T11:49:40;95220.31;;;26.04;28.47
20077;BME280;12348;42.710;23.378;2022-09-25T11:52:36;95211.84;;;25.75;28.78
20077;BME280;12348;42.710;23.378;2022-09-25T11:55:31;95209.94;;;25.79;28.58
20077;BME280;12348;42.710;23.378;2022-09-25T11:58:18;95202.53;;;25.39;29.01
20077;BME280;12348;42.710;23.378;2022-09-25T12:00:55;95201.09;;;25.08;29.26
20077;BME280;12348;42.710;23.378;2022-09-25T12:03:38;95198.72;;;24.62;29.55
20077;BME280;12348;42.710;23.378;2022-09-25T12:09:15;95179.50;;;24.65;29.36
20077;BME280;12348;42.710;23.378;2022-09-25T12:11:49;95175.25;;;24.79;29.10
20077;BME280;12348;42.710;23.378;2022-09-25T12:14:24;95183.72;;;24.56;28.88
20077;BME280;12348;42.710;23.378;2022-09-25T12:16:59;95179.78;;;23.89;29.72
20077;BME280;12348;42.710;23.378;2022-09-25T12:19:35;95186.69;;;23.76;29.84
20077;BME280;12348;42.710;23.378;2022-09-25T12:22:11;95178.94;;;24.53;29.20
20077;BME280;12348;42.710;23.378;2022-09-25T12:24:53;95177.81;;;25.02;28.73
20077;BME280;12348;42.710;23.378;2022-09-25T12:27:38;95170.34;;;24.99;28.63
20077;BME280;12348;42.710;23.378;2022-09-25T12:30:14;95163.09;;;24.80;28.84
20077;BME280;12348;42.710;23.378;2022-09-25T12:33:03;95163.78;;;24.70;28.74
20077;BME280;12348;42.710;23.378;2022-09-25T12:35:43;95164.97;;;24.72;28.95
20077;BME280;12348;42.710;23.378;2022-09-25T12:38:19;95156.16;;;24.56;28.61
20077;BME280;12348;42.710;23.378;2022-09-25T12:40:51;95155.47;;;24.29;29.72
20077;BME280;12348;42.710;23.378;2022-09-25T12:43:23;95148.97;;;24.44;28.94
20077;BME280;12348;42.710;23.378;2022-09-25T12:45:56;95156.69;;;24.69;28.63
20077;BME280;12348;42.710;23.378;2022-09-25T12:48:32;95147.03;;;24.89;28.41
20077;BME280;12348;42.710;23.378;2022-09-25T12:51:05;95152.22;;;24.19;29.12
20077;BME280;12348;42.710;23.378;2022-09-25T12:53:37;95136.59;;;23.63;29.39
20077;BME280;12348;42.710;23.378;2022-09-25T12:56:10;95140.72;;;23.46;29.59
20077;BME280;12348;42.710;23.378;2022-09-25T12:58:48;95127.00;;;22.93;30.15
20077;BME280;12348;42.710;23.378;2022-09-25T13:01:22;95125.59;;;23.33;30.53
20077;BME280;12348;42.710;23.378;2022-09-25T13:04:01;95126.47;;;23.41;30.06
20077;BME280;12348;42.710;23.378;2022-09-25T13:06:35;95114.88;;;23.25;30.21
20077;BME280;12348;42.710;23.378;2022-09-25T13:09:14;95116.00;;;23.20;30.32
20077;BME280;12348;42.710;23.378;2022-09-25T13:11:47;95108.09;;;23.18;30.33
20077;BME280;12348;42.710;23.378;2022-09-25T13:14:26;95100.03;;;23.03;29.65